sensor_id;sensor_type;location;lat;lon;timestamp;pressure;altitude;pressure_sealevel;temperature;humidity
66681;BME280;53575;51.366;12.350;2022-12-05T00:03:49;100257.81;;;3.41;100.00
66681;BME280;53575;51.366;12.350;2022-12-05T00:06:15;100259.47;;;3.39;100.00
66681;BME280;53575;51.366;12.350;2022-12-05T00:08:40;100264.03;;;3.50;100.00
66681;BME280;53575;51.366;12.350;2022-12-05T00:11:16;100267.13;;;3.33;100.00
66681;BME280;53575;51.366;12.350;2022-12-05T00:13:42;100267.88;;;3.29;100.00
66681;BME280;53575;51.366;12.350;2022-12-05T00:16:09;100260.13;;;3.29;100.00
66681;BME280;53575;51.366;12.350;2022-12-05T00:18:34;100263.00;;;3.43;100.00
66681;BME280;53575;51.366;12.350;2022-12-05T00:21:00;100266.41;;;3.40;100.00
66681;BME280;53575;51.366;12.350;2022-12-05T00:23:25;100264.59;;;3.36;100.00
66681;BME280;53575;51.366;12.350;2022-12-05T00:25:51;100264.88;;;3.49;100.00
66681;BME280;53575;51.366;12.350;2022-12-05T00:28:17;100259.63;;;3.46;100.00
66681;BME280;53575;51.366;12.350;2022-12-05T00:30:42;100267.38;;;3.46;100.00
66681;BME280;53575;51.366;12.350;2022-12-05T00:33:07;100273.16;;;3.34;100.00
66681;BME280;53575;51.366;12.350;2022-12-05T00:35:33;100269.56;;;3.27;100.00
66681;BME280;53575;51.366;12.350;2022-12-05T00:37:58;100276.88;;;3.47;100.00
66681;BME280;53575;51.366;12.350;2022-12-05T00:40:23;100269.72;;;3.35;100.00
66681;BME280;53575;51.366;12.350;2022-12-05T00:42:49;100267.19;;;3.36;100.00
66681;BME280;53575;51.366;12.350;2022-12-05T00:45:14;100266.53;;;3.47;100.00
66681;BME280;53575;51.366;12.350;2022-12-05T00:47:39;100272.53;;;3.46;100.00
66681;BME280;53575;51.366;12.350;2022-12-05T00:50:05;100274.69;;;3.26;100.00
66681;BME280;53575;51.366;12.350;2022-12-05T00:52:30;100267.88;;;3.29;100.00
66681;BME280;53575;51.366;12.350;2022-12-05T00:54:55;100266.44;;;3.42;100.00
66681;BME280;53575;51.366;12.350;2022-12-05T00:57:23;100278.56;;;3.46;100.00
66681;BME280;53575;51.366;12.350;2022-12-05T00:59:48;100283.31;;;3.28;100.00
66681;BME280;53575;51.366;12.350;2022-12-05T01:02:14;100277.34;;;3.29;100.00
66681;BME280;53575;51.366;12.350;2022-12-05T01:04:39;100284.28;;;3.31;100.00
66681;BME280;53575;51.366;12.350;2022-12-05T01:07:04;100282.38;;;3.24;100.00
66681;BME280;53575;51.366;12.350;2022-12-05T01:09:30;100282.25;;;3.18;100.00
66681;BME280;53575;51.366;12.350;2022-12-05T01:11:55;100284.00;;;3.19;100.00
66681;BME280;53575;51.366;12.350;2022-12-05T01:14:21;100278.28;;;3.32;100.00
66681;BME280;53575;51.366;12.350;2022-12-05T01:16:48;100290.44;;;3.36;100.00
66681;BME280;53575;51.366;12.350;2022-12-05T01:19:15;100292.50;;;3.15;100.00
66681;BME280;53575;51.366;12.350;2022-12-05T01:21:41;100297.00;;;3.22;100.00
66681;BME280;53575;51.366;12.350;2022-12-05T01:24:08;100288.72;;;3.37;100.00
66681;BME280;53575;51.366;12.350;2022-12-05T01:26:33;100284.22;;;3.28;100.00
66681;BME280;53575;51.366;12.350;2022-12-05T01:28:58;100286.66;;;3.22;100.00
66681;BME280;53575;51.366;12.350;2022-12-05T01:31:25;100288.38;;;3.22;100.00
66681;BME280;53575;51.366;12.350;2022-12-05T01:33:51;100289.31;;;3.25;100.00
66681;BME280;53575;51.366;12.350;2022-12-05T01:36:17;100288.31;;;3.20;100.00
66681;BME280;53575;51.366;12.350;2022-12-05T01:38:42;100291.03;;;3.25;100.00
66681;BME280;53575;51.366;12.350;2022-12-05T01:41:09;100293.78;;;3.32;100.00
66681;BME280;53575;51.366;12.350;2022-12-05T01:46:19;100289.31;;;3.25;100.00
66681;BME280;53575;51.366;12.350;2022-12-05T01:48:44;100291.81;;;3.21;100.00
66681;BME280;53575;51.366;12.350;2022-12-05T01:51:10;100283.28;;;3.25;100.00
66681;BME280;53575;51.366;12.350;2022-12-05T01:53:35;100283.41;;;3.31;100.00
66681;BME280;53575;51.366;12.350;2022-12-05T01:56:01;100291.13;;;3.29;100.00
66681;BME280;53575;51.366;12.350;2022-12-05T01:58:27;100274.09;;;3.37;100.00
66681;BME280;53575;51.366;12.350;2022-12-05T02:00:55;100287.97;;;3.42;100.00
66681;BME280;53575;51.366;12.350;2022-12-05T02:03:20;100281.06;;;3.41;100.00
66681;BME280;53575;51.366;12.350;2022-12-05T02:05:47;100282.72;;;3.39;100.00
66681;BME280;53575;51.366;12.350;2022-12-05T02:08:14;100278.66;;;3.49;100.00
66681;BME280;53575;51.366;12.350;2022-12-05T02:10:48;100282.72;;;3.39;100.00
66681;BME280;53575;51.366;12.350;2022-12-05T02:13:25;100279.34;;;3.40;100.00
66681;BME280;53575;51.366;12.350;2022-12-05T02:16:01;100281.75;;;3.33;100.00
66681;BME280;53575;51.366;12.350;2022-12-05T02:18:38;100280.09;;;3.36;100.00
66681;BME280;53575;51.366;12.350;2022-12-05T02:21:17;100285.31;;;3.39;100.00
66681;BME280;53575;51.366;12.350;2022-12-05T02:31:26;100282.97;;;3.50;100.00
66681;BME280;53575;51.366;12.350;2022-12-05T02:39:13;100291.56;;;3.49;100.00
66681;BME280;53575;51.366;12.350;2022-12-05T02:41:44;100283.41;;;3.31;100.00
66681;BME280;53575;51.366;12.350;2022-12-05T02:44:21;100282.19;;;3.53;100.00
66681;BME280;53575;51.366;12.350;2022-12-05T02:46:50;100289.91;;;3.51;100.00
66681;BME280;53575;51.366;12.350;2022-12-05T02:49:20;100282.97;;;3.50;100.00
66681;BME280;53575;51.366;12.350;2022-12-05T02:51:47;100281.16;;;3.45;100.00
66681;BME280;53575;51.366;12.350;2022-12-05T02:54:15;100279.34;;;3.42;100.00
66681;BME280;53575;51.366;12.350;2022-12-05T02:56:45;100283.03;;;3.52;100.00
66681;BME280;53575;51.366;12.350;2022-12-05T02:59:11;100266.84;;;3.62;100.00
66681;BME280;53575;51.366;12.350;2022-12-05T03:01:36;100280.31;;;3.47;100.00
66681;BME280;53575;51.366;12.350;2022-12-05T03:04:03;100278.31;;;3.34;100.00
66681;BME280;53575;51.366;12.350;2022-12-05T03:06:30;100280.09;;;3.36;100.00
66681;BME280;53575;51.366;12.350;2022-12-05T03:08:57;100272.47;;;3.42;100.00
66681;BME280;53575;51.366;12.350;2022-12-05T03:11:25;100273.56;;;3.52;100.00
66681;BME280;53575;51.366;12.350;2022-12-05T03:13:54;100275.31;;;3.55;100.00
66681;BME280;53575;51.366;12.350;2022-12-05T03:16:24;100281.31;;;3.52;100.00
66681;BME280;53575;51.366;12.350;2022-12-05T03:19:00;100281.41;;;3.57;100.00
66681;BME280;53575;51.366;12.350;2022-12-05T03:21:33;100279.53;;;3.50;100.00
66681;BME280;53575;51.366;12.350;2022-12-05T03:24:04;100284.69;;;3.50;100.00
66681;BME280;53575;51.366;12.350;2022-12-05T03:26:34;100282.88;;;3.46;100.00
66681;BME280;53575;51.366;12.350;2022-12-05T03:29:09;100284.75;;;3.53;100.00
66681;BME280;53575;51.366;12.350;2022-12-05T03:36:54;100284.66;;;3.48;100.00
66681;BME280;53575;51.366;12.350;2022-12-05T03:39:27;100284.69;;;3.50;100.00
66681;BME280;53575;51.366;12.350;2022-12-05T03:41:58;100283.84;;;3.51;100.00
66681;BME280;53575;51.366;12.350;2022-12-05T03:47:11;100281.25;;;3.51;100.00
66681;BME280;53575;51.366;12.350;2022-12-05T03:49:40;100277.94;;;3.56;100.00
66681;BME280;53575;51.366;12.350;2022-12-05T03:52:14;100281.25;;;3.51;100.00
66681;BME280;53575;51.366;12.350;2022-12-05T03:54:52;100283.84;;;3.51;100.00
66681;BME280;53575;51.366;12.350;2022-12-05T03:59:46;100282.81;;;3.42;100.00
66681;BME280;53575;51.366;12.350;2022-12-05T04:02:17;100280.22;;;3.42;100.00
66681;BME280;53575;51.366;12.350;2022-12-05T04:04:56;100281.69;;;3.31;100.00
66681;BME280;53575;51.366;12.350;2022-12-05T04:07:23;100287.00;;;3.37;100.00
66681;BME280;53575;51.366;12.350;2022-12-05T04:09:51;100286.22;;;3.41;100.00
66681;BME280;53575;51.366;12.350;2022-12-05T04:12:23;100284.56;;;3.44;100.00
66681;BME280;53575;51.366;12.350;2022-12-05T04:14:52;100282.09;;;3.48;100.00
66681;BME280;53575;51.366;12.350;2022-12-05T04:20:37;100293.31;;;3.50;100.00
66681;BME280;53575;51.366;12.350;2022-12-05T04:23:23;100293.31;;;3.50;100.00
66681;BME280;53575;51.366;12.350;2022-12-05T04:25:53;100289.94;;;3.54;100.00
66681;BME280;53575;51.366;12.350;2022-12-05T04:33:14;100301.03;;;3.49;100.00
66681;BME280;53575;51.366;12.350;2022-12-05T04:35:42;100302.91;;;3.56;100.00
66681;BME280;53575;51.366;12.350;2022-12-05T04:38:12;100302.09;;;3.58;100.00
66681;BME280;53575;51.366;12.350;2022-12-05T04:40:40;100308.09;;;3.57;100.00
66681;BME280;53575;51.366;12.350;2022-12-05T04:43:08;100308.63;;;3.42;100.00
66681;BME280;53575;51.366;12.350;2022-12-05T04:45:35;100314.56;;;3.37;100.00
66681;BME280;53575;51.366;12.350;2022-12-05T04:48:03;100311.22;;;3.42;100.00
66681;BME280;53575;51.366;12.350;2022-12-05T04:50:32;100318.19;;;3.45;100.00
66681;BME280;53575;51.366;12.350;2022-12-05T04:52:59;100313.19;;;3.53;100.00
66681;BME280;53575;51.366;12.350;2022-12-05T04:55:25;100321.38;;;3.35;100.00
66681;BME280;53575;51.366;12.350;2022-12-05T04:57:59;100324.31;;;3.50;100.00
66681;BME280;53575;51.366;12.350;2022-12-05T05:00:27;100320.06;;;3.52;100.00
66681;BME280;53575;51.366;12.350;2022-12-05T05:02:54;100322.75;;;3.57;100.00
66681;BME280;53575;51.366;12.350;2022-12-05T05:05:22;100326.97;;;3.53;100.00
66681;BME280;53575;51.366;12.350;2022-12-05T05:07:49;100336.44;;;3.54;100.00
66681;BME280;53575;51.366;12.350;2022-12-05T05:10:18;100330.34;;;3.51;100.00
66681;BME280;53575;51.366;12.350;2022-12-05T05:12:45;100336.09;;;3.37;100.00
66681;BME280;53575;51.366;12.350;2022-12-05T05:15:11;100337.81;;;3.38;100.00
66681;BME280;53575;51.366;12.350;2022-12-05T05:17:36;100339.63;;;3.41;100.00
66681;BME280;53575;51.366;12.350;2022-12-05T05:20:02;100341.44;;;3.45;100.00
66681;BME280;53575;51.366;12.350;2022-12-05T05:22:47;100335.28;;;3.40;100.00
66681;BME280;53575;51.366;12.350;2022-12-05T05:25:13;100340.59;;;3.46;100.00
66681;BME280;53575;51.366;12.350;2022-12-05T05:27:38;100347.53;;;3.49;100.00
66681;BME280;53575;51.366;12.350;2022-12-05T05:30:03;100336.34;;;3.50;100.00
66681;BME280;53575;51.366;12.350;2022-12-05T05:32:31;100337.88;;;3.40;100.00
66681;BME280;53575;51.366;12.350;2022-12-05T05:34:56;100344.91;;;3.47;100.00
66681;BME280;53575;51.366;12.350;2022-12-05T05:37:21;100348.91;;;3.34;100.00
66681;BME280;53575;51.366;12.350;2022-12-05T05:39:47;100341.03;;;3.28;100.00
66681;BME280;53575;51.366;12.350;2022-12-05T05:42:12;100349.88;;;3.38;100.00
66681;BME280;53575;51.366;12.350;2022-12-05T05:44:37;100359.25;;;3.34;100.00
66681;BME280;53575;51.366;12.350;2022-12-05T05:47:03;100351.72;;;3.44;100.00
66681;BME280;53575;51.366;12.350;2022-12-05T05:49:29;100357.63;;;3.38;100.00
66681;BME280;53575;51.366;12.350;2022-12-05T05:51:55;100362.06;;;3.44;100.00
66681;BME280;53575;51.366;12.350;2022-12-05T05:54:20;100363.72;;;3.41;100.00
66681;BME280;53575;51.366;12.350;2022-12-05T05:56:46;100363.56;;;3.35;100.00
66681;BME280;53575;51.366;12.350;2022-12-05T05:59:11;100364.69;;;3.47;100.00
66681;BME280;53575;51.366;12.350;2022-12-05T06:01:36;100368.09;;;3.44;100.00
66681;BME280;53575;51.366;12.350;2022-12-05T06:04:02;100361.16;;;3.41;100.00
66681;BME280;53575;51.366;12.350;2022-12-05T06:06:27;100369.88;;;3.47;100.00
66681;BME280;53575;51.366;12.350;2022-12-05T06:08:52;100363.75;;;3.43;100.00
66681;BME280;53575;51.366;12.350;2022-12-05T06:11:20;100367.19;;;3.42;100.00
66681;BME280;53575;51.366;12.350;2022-12-05T06:13:45;100370.69;;;3.44;100.00
66681;BME280;53575;51.366;12.350;2022-12-05T06:16:11;100369.06;;;3.48;100.00
66681;BME280;53575;51.366;12.350;2022-12-05T06:18:37;100369.06;;;3.48;100.00
66681;BME280;53575;51.366;12.350;2022-12-05T06:21:03;100381.41;;;3.61;100.00
66681;BME280;53575;51.366;12.350;2022-12-05T06:23:32;100376.22;;;3.61;100.00
66681;BME280;53575;51.366;12.350;2022-12-05T06:25:57;100381.50;;;3.65;100.00
66681;BME280;53575;51.366;12.350;2022-12-05T06:28:23;100378.63;;;3.53;100.00
66681;BME280;53575;51.366;12.350;2022-12-05T06:30:48;100378.63;;;3.52;100.00
66681;BME280;53575;51.366;12.350;2022-12-05T06:33:14;100376.56;;;3.38;100.00
66681;BME280;53575;51.366;12.350;2022-12-05T06:35:40;100380.06;;;3.40;100.00
66681;BME280;53575;51.366;12.350;2022-12-05T06:38:05;100380.00;;;3.39;100.00
66681;BME280;53575;51.366;12.350;2022-12-05T06:40:31;100375.66;;;3.36;100.00
66681;BME280;53575;51.366;12.350;2022-12-05T06:42:56;100382.56;;;3.37;100.00
66681;BME280;53575;51.366;12.350;2022-12-05T06:45:21;100392.16;;;3.41;100.00
66681;BME280;53575;51.366;12.350;2022-12-05T06:47:47;100389.66;;;3.46;100.00
66681;BME280;53575;51.366;12.350;2022-12-05T06:50:12;100392.31;;;3.48;100.00
66681;BME280;53575;51.366;12.350;2022-12-05T06:52:37;100393.06;;;3.44;100.00
66681;BME280;53575;51.366;12.350;2022-12-05T06:55:03;100393.19;;;3.50;100.00
66681;BME280;53575;51.366;12.350;2022-12-05T06:57:28;100388.88;;;3.49;100.00
66681;BME280;53575;51.366;12.350;2022-12-05T06:59:53;100388.53;;;3.35;100.00
66681;BME280;53575;51.366;12.350;2022-12-05T07:02:39;100392.25;;;3.46;100.00
66681;BME280;53575;51.366;12.350;2022-12-05T07:05:06;100383.72;;;3.50;100.00
66681;BME280;53575;51.366;12.350;2022-12-05T07:07:31;100391.56;;;3.53;100.00
66681;BME280;53575;51.366;12.350;2022-12-05T07:09:56;100392.16;;;3.43;100.00
66681;BME280;53575;51.366;12.350;2022-12-05T07:12:22;100387.13;;;3.48;100.00
66681;BME280;53575;51.366;12.350;2022-12-05T07:14:47;100386.13;;;3.42;100.00
66681;BME280;53575;51.366;12.350;2022-12-05T07:17:12;100394.66;;;3.38;100.00
66681;BME280;53575;51.366;12.350;2022-12-05T07:19:38;100394.63;;;3.37;100.00
66681;BME280;53575;51.366;12.350;2022-12-05T07:22:03;100397.91;;;3.31;100.00
66681;BME280;53575;51.366;12.350;2022-12-05T07:24:28;100399.97;;;3.45;100.00
66681;BME280;53575;51.366;12.350;2022-12-05T07:26:54;100399.28;;;3.52;100.00
66681;BME280;53575;51.366;12.350;2022-12-05T07:29:19;100395.69;;;3.47;100.00
66681;BME280;53575;51.366;12.350;2022-12-05T07:31:44;100402.47;;;3.41;100.00
66681;BME280;53575;51.366;12.350;2022-12-05T07:34:10;100400.94;;;3.50;100.00
66681;BME280;53575;51.366;12.350;2022-12-05T07:36:35;100405.44;;;3.58;100.00
66681;BME280;53575;51.366;12.350;2022-12-05T07:39:02;100403.88;;;3.65;100.00
66681;BME280;53575;51.366;12.350;2022-12-05T07:41:28;100407.50;;;3.72;100.00
66681;BME280;53575;51.366;12.350;2022-12-05T07:43:55;100410.94;;;3.72;100.00
66681;BME280;53575;51.366;12.350;2022-12-05T07:46:20;100407.50;;;3.73;100.00
66681;BME280;53575;51.366;12.350;2022-12-05T07:48:46;100411.44;;;3.94;100.00
66681;BME280;53575;51.366;12.350;2022-12-05T07:51:12;100412.16;;;3.86;100.00
66681;BME280;53575;51.366;12.350;2022-12-05T07:53:37;100411.28;;;3.87;100.00
66681;BME280;53575;51.366;12.350;2022-12-05T07:56:04;100413.03;;;3.88;100.00
66681;BME280;53575;51.366;12.350;2022-12-05T07:58:30;100415.69;;;3.91;100.00
66681;BME280;53575;51.366;12.350;2022-12-05T08:00:56;100421.72;;;3.90;100.00
66681;BME280;53575;51.366;12.350;2022-12-05T08:03:22;100426.09;;;3.93;100.00
66681;BME280;53575;51.366;12.350;2022-12-05T08:05:48;100423.44;;;3.91;100.00
66681;BME280;53575;51.366;12.350;2022-12-05T08:08:13;100420.94;;;3.95;100.00
66681;BME280;53575;51.366;12.350;2022-12-05T08:10:38;100422.91;;;4.05;100.00
66681;BME280;53575;51.366;12.350;2022-12-05T08:13:05;100432.31;;;4.03;100.00
66681;BME280;53575;51.366;12.350;2022-12-05T08:15:35;100437.34;;;3.97;100.00
66681;BME280;53575;51.366;12.350;2022-12-05T08:18:00;100439.31;;;4.07;100.00
66681;BME280;53575;51.366;12.350;2022-12-05T08:20:26;100436.47;;;3.96;100.00
66681;BME280;53575;51.366;12.350;2022-12-05T08:22:52;100431.53;;;4.07;100.00
66681;BME280;53575;51.366;12.350;2022-12-05T08:25:19;100434.94;;;4.04;100.00
66681;BME280;53575;51.366;12.350;2022-12-05T08:27:44;100435.06;;;4.10;100.00
66681;BME280;53575;51.366;12.350;2022-12-05T08:30:09;100431.47;;;4.04;100.00
66681;BME280;53575;51.366;12.350;2022-12-05T08:32:35;100437.00;;;3.81;100.00
66681;BME280;53575;51.366;12.350;2022-12-05T08:35:00;100438.88;;;3.88;100.00
66681;BME280;53575;51.366;12.350;2022-12-05T08:37:25;100448.28;;;3.85;100.00
66681;BME280;53575;51.366;12.350;2022-12-05T08:39:51;100450.84;;;3.83;100.00
66681;BME280;53575;51.366;12.350;2022-12-05T08:42:16;100441.78;;;4.01;100.00
66681;BME280;53575;51.366;12.350;2022-12-05T08:44:41;100456.22;;;3.92;100.00
66681;BME280;53575;51.366;12.350;2022-12-05T08:47:07;100449.56;;;4.04;100.00
66681;BME280;53575;51.366;12.350;2022-12-05T08:49:32;100449.78;;;4.13;100.00
66681;BME280;53575;51.366;12.350;2022-12-05T08:51:57;100458.66;;;4.24;100.00
66681;BME280;53575;51.366;12.350;2022-12-05T08:54:22;100460.31;;;4.21;100.00
66681;BME280;53575;51.366;12.350;2022-12-05T08:56:51;100467.28;;;4.25;100.00
66681;BME280;53575;51.366;12.350;2022-12-05T08:59:16;100474.66;;;4.08;100.00
66681;BME280;53575;51.366;12.350;2022-12-05T09:01:41;100471.84;;;3.97;100.00
66681;BME280;53575;51.366;12.350;2022-12-05T09:04:07;100471.03;;;4.00;100.00
66681;BME280;53575;51.366;12.350;2022-12-05T09:06:33;100475.16;;;3.91;100.00
66681;BME280;53575;51.366;12.350;2022-12-05T09:08:59;100474.13;;;3.85;100.00
66681;BME280;53575;51.366;12.350;2022-12-05T09:11:27;100478.22;;;3.75;100.00
66681;BME280;53575;51.366;12.350;2022-12-05T09:13:53;100486.88;;;3.77;100.00
66681;BME280;53575;51.366;12.350;2022-12-05T09:16:20;100483.31;;;3.72;100.00
66681;BME280;53575;51.366;12.350;2022-12-05T09:18:46;100488.66;;;3.80;100.00
66681;BME280;53575;51.366;12.350;2022-12-05T09:21:16;100492.00;;;3.74;100.00
66681;BME280;53575;51.366;12.350;2022-12-05T09:23:42;100488.06;;;3.90;100.00
66681;BME280;53575;51.366;12.350;2022-12-05T09:26:09;100487.19;;;3.89;100.00
66681;BME280;53575;51.366;12.350;2022-12-05T09:28:35;100489.78;;;3.89;100.00
66681;BME280;53575;51.366;12.350;2022-12-05T09:31:02;100489.81;;;3.92;100.00
66681;BME280;53575;51.366;12.350;2022-12-05T09:33:28;100485.38;;;3.85;100.00
66681;BME280;53575;51.366;12.350;2022-12-05T09:35:54;100491.53;;;3.92;100.00
66681;BME280;53575;51.366;12.350;2022-12-05T09:38:19;100494.22;;;3.97;100.00
66681;BME280;53575;51.366;12.350;2022-12-05T09:40:45;100490.75;;;3.95;100.00
66681;BME280;53575;51.366;12.350;2022-12-05T09:43:24;100493.13;;;3.85;100.00
66681;BME280;53575;51.366;12.350;2022-12-05T09:45:55;100484.81;;;4.00;100.00
66681;BME280;53575;51.366;12.350;2022-12-05T09:48:23;100491.59;;;3.94;100.00
66681;BME280;53575;51.366;12.350;2022-12-05T09:50:51;100489.81;;;3.92;100.00
66681;BME280;53575;51.366;12.350;2022-12-05T09:56:29;100491.47;;;3.89;100.00
66681;BME280;53575;51.366;12.350;2022-12-05T10:06:31;100493.25;;;3.91;100.00
66681;BME280;53575;51.366;12.350;2022-12-05T10:11:38;100488.59;;;3.77;100.00
66681;BME280;53575;51.366;12.350;2022-12-05T10:14:16;100485.56;;;3.95;100.00
66681;BME280;53575;51.366;12.350;2022-12-05T10:16:48;100482.47;;;3.73;100.00
66681;BME280;53575;51.366;12.350;2022-12-05T10:19:22;100483.31;;;3.72;100.00
66681;BME280;53575;51.366;12.350;2022-12-05T10:24:23;100492.28;;;3.86;100.00
66681;BME280;53575;51.366;12.350;2022-12-05T10:26:53;100498.41;;;3.90;100.00
66681;BME280;53575;51.366;12.350;2022-12-05T10:29:25;100492.31;;;3.88;100.00
66681;BME280;53575;51.366;12.350;2022-12-05T10:31:52;100494.22;;;3.97;100.00
66681;BME280;53575;51.366;12.350;2022-12-05T10:37:18;100490.38;;;3.79;100.00
66681;BME280;53575;51.366;12.350;2022-12-05T10:39:44;100488.06;;;3.90;100.00
66681;BME280;53575;51.366;12.350;2022-12-05T10:42:14;100484.81;;;4.00;100.00
66681;BME280;53575;51.366;12.350;2022-12-05T10:44:40;100491.94;;;4.09;100.00
66681;BME280;53575;51.366;12.350;2022-12-05T10:47:05;100489.28;;;4.06;100.00
66681;BME280;53575;51.366;12.350;2022-12-05T10:49:31;100492.53;;;3.97;100.00
66681;BME280;53575;51.366;12.350;2022-12-05T10:51:58;100495.06;;;3.96;100.00
66681;BME280;53575;51.366;12.350;2022-12-05T10:54:28;100487.13;;;3.88;100.00
66681;BME280;53575;51.366;12.350;2022-12-05T10:56:54;100489.81;;;3.92;100.00
66681;BME280;53575;51.366;12.350;2022-12-05T10:59:23;100484.44;;;3.83;100.00
66681;BME280;53575;51.366;12.350;2022-12-05T11:04:25;100485.38;;;3.85;100.00
66681;BME280;53575;51.366;12.350;2022-12-05T11:06:52;100487.88;;;3.82;100.00
66681;BME280;53575;51.366;12.350;2022-12-05T11:09:19;100489.31;;;3.71;100.00
66681;BME280;53575;51.366;12.350;2022-12-05T11:14:26;100492.69;;;3.67;100.00
66681;BME280;53575;51.366;12.350;2022-12-05T11:16:56;100493.34;;;3.60;100.00
66681;BME280;53575;51.366;12.350;2022-12-05T11:19:34;100493.31;;;3.58;100.00
66681;BME280;53575;51.366;12.350;2022-12-05T11:22:00;100495.00;;;3.58;100.00
66681;BME280;53575;51.366;12.350;2022-12-05T11:26:55;100489.13;;;3.63;100.00
66681;BME280;53575;51.366;12.350;2022-12-05T11:29:34;100491.75;;;3.65;100.00
66681;BME280;53575;51.366;12.350;2022-12-05T11:32:00;100484.16;;;3.71;100.00
66681;BME280;53575;51.366;12.350;2022-12-05T11:34:27;100492.88;;;3.76;100.00
66681;BME280;53575;51.366;12.350;2022-12-05T11:36:55;100487.69;;;3.75;100.00
66681;BME280;53575;51.366;12.350;2022-12-05T11:39:22;100492.94;;;3.78;100.00
66681;BME280;53575;51.366;12.350;2022-12-05T11:55:50;100484.38;;;3.46;100.00
66681;BME280;53575;51.366;12.350;2022-12-05T12:06:18;100484.66;;;3.56;100.00
66681;BME280;53575;51.366;12.350;2022-12-05T12:11:35;100478.53;;;3.53;100.00
66681;BME280;53575;51.366;12.350;2022-12-05T12:19:06;100480.38;;;3.58;100.00
66681;BME280;53575;51.366;12.350;2022-12-05T12:21:41;100481.47;;;3.66;100.00
66681;BME280;53575;51.366;12.350;2022-12-05T12:24:30;100483.63;;;3.50;100.00
66681;BME280;53575;51.366;12.350;2022-12-05T12:31:57;100477.84;;;3.60;100.00
66681;BME280;53575;51.366;12.350;2022-12-05T12:37:33;100477.97;;;3.64;100.00
66681;BME280;53575;51.366;12.350;2022-12-05T12:42:26;100481.19;;;3.56;100.00
66681;BME280;53575;51.366;12.350;2022-12-05T12:50:26;100484.50;;;3.50;100.00
66681;BME280;53575;51.366;12.350;2022-12-05T13:02:53;100479.69;;;3.65;100.00
66681;BME280;53575;51.366;12.350;2022-12-05T13:08:08;100488.41;;;3.69;100.00
66681;BME280;53575;51.366;12.350;2022-12-05T13:10:43;100485.13;;;3.76;100.00
66681;BME280;53575;51.366;12.350;2022-12-05T13:13:17;100485.91;;;3.72;100.00
66681;BME280;53575;51.366;12.350;2022-12-05T13:15:49;100491.22;;;3.78;100.00
66681;BME280;53575;51.366;12.350;2022-12-05T13:18:21;100498.06;;;3.76;100.00
66681;BME280;53575;51.366;12.350;2022-12-05T13:20:48;100496.72;;;3.57;100.00
66681;BME280;53575;51.366;12.350;2022-12-05T13:23:15;100492.81;;;3.38;100.00
66681;BME280;53575;51.366;12.350;2022-12-05T13:25:42;100492.81;;;3.38;100.00
66681;BME280;53575;51.366;12.350;2022-12-05T13:28:16;100489.44;;;3.41;100.00
66681;BME280;53575;51.366;12.350;2022-12-05T13:30:47;100498.34;;;3.54;100.00
66681;BME280;53575;51.366;12.350;2022-12-05T13:33:24;100501.41;;;3.39;100.00
66681;BME280;53575;51.366;12.350;2022-12-05T13:35:53;100497.13;;;3.39;100.00
66681;BME280;53575;51.366;12.350;2022-12-05T13:38:37;100499.72;;;3.39;100.00
66681;BME280;53575;51.366;12.350;2022-12-05T13:41:32;100499.56;;;3.33;100.00
66681;BME280;53575;51.366;12.350;2022-12-05T13:44:25;100511.91;;;3.44;100.00
66681;BME280;53575;51.366;12.350;2022-12-05T13:46:53;100511.63;;;3.34;100.00
66681;BME280;53575;51.366;12.350;2022-12-05T13:52:05;100510.97;;;3.41;100.00
66681;BME280;53575;51.366;12.350;2022-12-05T13:54:31;100509.25;;;3.42;100.00
66681;BME280;53575;51.366;12.350;2022-12-05T13:57:00;100512.88;;;3.49;100.00
66681;BME280;53575;51.366;12.350;2022-12-05T14:04:54;100508.31;;;3.38;100.00
66681;BME280;53575;51.366;12.350;2022-12-05T14:07:41;100509.16;;;3.37;100.00
66681;BME280;53575;51.366;12.350;2022-12-05T14:10:05;100501.47;;;3.40;100.00
66681;BME280;53575;51.366;12.350;2022-12-05T14:12:45;100499.88;;;3.46;100.00
66681;BME280;53575;51.366;12.350;2022-12-05T14:15:31;100502.81;;;3.26;100.00
66681;BME280;53575;51.366;12.350;2022-12-05T14:20:47;100498.69;;;3.33;100.00
66681;BME280;53575;51.366;12.350;2022-12-05T14:25:51;100496.06;;;3.31;100.00
66681;BME280;53575;51.366;12.350;2022-12-05T14:33:37;100494.22;;;3.27;100.00
66681;BME280;53575;51.366;12.350;2022-12-05T14:36:03;100497.66;;;3.26;100.00
66681;BME280;53575;51.366;12.350;2022-12-05T14:38:30;100494.22;;;3.27;100.00
66681;BME280;53575;51.366;12.350;2022-12-05T14:41:09;100493.44;;;3.30;100.00
66681;BME280;53575;51.366;12.350;2022-12-05T14:43:36;100512.09;;;3.20;100.00
66681;BME280;53575;51.366;12.350;2022-12-05T14:48:38;100507.75;;;3.17;100.00
66681;BME280;53575;51.366;12.350;2022-12-05T14:51:55;100505.28;;;3.22;100.00
66681;BME280;53575;51.366;12.350;2022-12-05T14:56:58;100501.16;;;3.28;100.00
66681;BME280;53575;51.366;12.350;2022-12-05T14:59:27;100504.25;;;3.15;100.00
66681;BME280;53575;51.366;12.350;2022-12-05T15:01:55;100499.91;;;3.14;100.00
66681;BME280;53575;51.366;12.350;2022-12-05T15:06:54;100497.84;;;3.32;100.00
66681;BME280;53575;51.366;12.350;2022-12-05T15:09:30;100504.66;;;3.30;100.00
66681;BME280;53575;51.366;12.350;2022-12-05T15:11:59;100508.22;;;3.35;100.00
66681;BME280;53575;51.366;12.350;2022-12-05T15:14:26;100502.06;;;3.30;100.00